sensor_id;sensor_type;location;lat;lon;timestamp;P1;durP1;ratioP1;P2;durP2;ratioP2
55202;SDS011;41077;52.956;6.796;2023-02-28T00:00:30;621.42;;;587.03;;
55202;SDS011;41077;52.956;6.796;2023-02-28T00:02:56;615.15;;;580.75;;
55202;SDS011;41077;52.956;6.796;2023-02-28T00:05:22;633.90;;;598.22;;
55202;SDS011;41077;52.956;6.796;2023-02-28T00:07:50;629.20;;;594.22;;
55202;SDS011;41077;52.956;6.796;2023-02-28T00:10:19;647.38;;;610.88;;
55202;SDS011;41077;52.956;6.796;2023-02-28T00:12:51;619.35;;;584.83;;
55202;SDS011;41077;52.956;6.796;2023-02-28T00:15:17;640.28;;;603.95;;
55202;SDS011;41077;52.956;6.796;2023-02-28T00:17:44;628.78;;;594.15;;
55202;SDS011;41077;52.956;6.796;2023-02-28T00:20:10;627.60;;;592.15;;
55202;SDS011;41077;52.956;6.796;2023-02-28T00:22:41;639.55;;;603.70;;
55202;SDS011;41077;52.956;6.796;2023-02-28T00:25:09;629.53;;;594.85;;
55202;SDS011;41077;52.956;6.796;2023-02-28T00:27:36;642.05;;;606.10;;
55202;SDS011;41077;52.956;6.796;2023-02-28T00:30:03;621.92;;;587.00;;
55202;SDS011;41077;52.956;6.796;2023-02-28T00:32:30;626.85;;;591.25;;
55202;SDS011;41077;52.956;6.796;2023-02-28T00:34:56;641.35;;;605.35;;
55202;SDS011;41077;52.956;6.796;2023-02-28T00:37:22;642.78;;;606.60;;
55202;SDS011;41077;52.956;6.796;2023-02-28T00:39:48;640.25;;;604.35;;
55202;SDS011;41077;52.956;6.796;2023-02-28T00:42:13;639.53;;;603.67;;
55202;SDS011;41077;52.956;6.796;2023-02-28T00:44:39;629.50;;;594.08;;
55202;SDS011;41077;52.956;6.796;2023-02-28T00:47:05;641.00;;;604.58;;
55202;SDS011;41077;52.956;6.796;2023-02-28T00:49:30;618.03;;;584.03;;
55202;SDS011;41077;52.956;6.796;2023-02-28T00:51:56;643.70;;;607.40;;
55202;SDS011;41077;52.956;6.796;2023-02-28T00:54:22;633.67;;;597.65;;
55202;SDS011;41077;52.956;6.796;2023-02-28T00:56:49;619.50;;;585.05;;
55202;SDS011;41077;52.956;6.796;2023-02-28T00:59:16;644.15;;;608.20;;
55202;SDS011;41077;52.956;6.796;2023-02-28T01:01:42;624.85;;;590.10;;
55202;SDS011;41077;52.956;6.796;2023-02-28T01:04:09;641.72;;;604.55;;
55202;SDS011;41077;52.956;6.796;2023-02-28T01:06:35;635.15;;;599.50;;
55202;SDS011;41077;52.956;6.796;2023-02-28T01:09:02;646.42;;;609.83;;
55202;SDS011;41077;52.956;6.796;2023-02-28T01:11:29;647.50;;;611.83;;
55202;SDS011;41077;52.956;6.796;2023-02-28T01:13:54;629.67;;;595.38;;
55202;SDS011;41077;52.956;6.796;2023-02-28T01:16:20;639.03;;;603.60;;
55202;SDS011;41077;52.956;6.796;2023-02-28T01:18:46;620.15;;;586.75;;
55202;SDS011;41077;52.956;6.796;2023-02-28T01:21:13;629.03;;;594.22;;
55202;SDS011;41077;52.956;6.796;2023-02-28T01:23:40;624.30;;;589.85;;
55202;SDS011;41077;52.956;6.796;2023-02-28T01:26:10;626.03;;;590.92;;
55202;SDS011;41077;52.956;6.796;2023-02-28T01:28:44;611.45;;;577.10;;
55202;SDS011;41077;52.956;6.796;2023-02-28T01:31:10;643.75;;;608.05;;
55202;SDS011;41077;52.956;6.796;2023-02-28T01:33:36;605.85;;;572.88;;
55202;SDS011;41077;52.956;6.796;2023-02-28T01:36:03;40.40;;;37.45;;
55202;SDS011;41077;52.956;6.796;2023-02-28T01:38:33;38.90;;;36.30;;
55202;SDS011;41077;52.956;6.796;2023-02-28T01:40:59;44.50;;;42.03;;
55202;SDS011;41077;52.956;6.796;2023-02-28T01:43:35;41.78;;;39.30;;
55202;SDS011;41077;52.956;6.796;2023-02-28T01:46:13;42.53;;;39.35;;
55202;SDS011;41077;52.956;6.796;2023-02-28T01:48:40;41.33;;;38.92;;
55202;SDS011;41077;52.956;6.796;2023-02-28T01:51:11;85.55;;;80.88;;
55202;SDS011;41077;52.956;6.796;2023-02-28T01:53:47;100.53;;;94.95;;
55202;SDS011;41077;52.956;6.796;2023-02-28T01:56:17;121.20;;;115.00;;
55202;SDS011;41077;52.956;6.796;2023-02-28T01:58:48;53.40;;;50.22;;
55202;SDS011;41077;52.956;6.796;2023-02-28T02:01:18;84.43;;;79.93;;
55202;SDS011;41077;52.956;6.796;2023-02-28T02:03:51;95.10;;;89.80;;
55202;SDS011;41077;52.956;6.796;2023-02-28T02:06:22;154.45;;;146.50;;
55202;SDS011;41077;52.956;6.796;2023-02-28T02:08:54;153.63;;;145.57;;
55202;SDS011;41077;52.956;6.796;2023-02-28T02:11:20;169.55;;;161.32;;
55202;SDS011;41077;52.956;6.796;2023-02-28T02:13:57;167.35;;;159.18;;
55202;SDS011;41077;52.956;6.796;2023-02-28T02:22:30;172.02;;;163.40;;
55202;SDS011;41077;52.956;6.796;2023-02-28T02:44:02;114.90;;;108.68;;
55202;SDS011;41077;52.956;6.796;2023-02-28T02:46:44;160.93;;;152.57;;
55202;SDS011;41077;52.956;6.796;2023-02-28T02:49:19;172.95;;;164.32;;
55202;SDS011;41077;52.956;6.796;2023-02-28T02:51:52;115.75;;;109.55;;
55202;SDS011;41077;52.956;6.796;2023-02-28T02:54:27;171.25;;;162.48;;
55202;SDS011;41077;52.956;6.796;2023-02-28T02:56:57;91.80;;;86.38;;
55202;SDS011;41077;52.956;6.796;2023-02-28T02:59:26;175.73;;;166.45;;
55202;SDS011;41077;52.956;6.796;2023-02-28T03:01:56;122.72;;;115.90;;
55202;SDS011;41077;52.956;6.796;2023-02-28T03:04:27;146.27;;;138.85;;
55202;SDS011;41077;52.956;6.796;2023-02-28T03:06:58;155.90;;;147.63;;
55202;SDS011;41077;52.956;6.796;2023-02-28T03:09:24;140.10;;;132.60;;
55202;SDS011;41077;52.956;6.796;2023-02-28T03:11:51;154.38;;;146.60;;
55202;SDS011;41077;52.956;6.796;2023-02-28T03:17:23;122.55;;;116.20;;
55202;SDS011;41077;52.956;6.796;2023-02-28T03:20:28;128.25;;;120.70;;
55202;SDS011;41077;52.956;6.796;2023-02-28T03:23:19;124.25;;;117.55;;
55202;SDS011;41077;52.956;6.796;2023-02-28T03:29:35;118.70;;;112.03;;
55202;SDS011;41077;52.956;6.796;2023-02-28T03:32:07;112.00;;;105.47;;
55202;SDS011;41077;52.956;6.796;2023-02-28T03:34:40;79.43;;;74.80;;
55202;SDS011;41077;52.956;6.796;2023-02-28T03:37:13;105.00;;;99.13;;
55202;SDS011;41077;52.956;6.796;2023-02-28T03:39:45;125.38;;;118.43;;
55202;SDS011;41077;52.956;6.796;2023-02-28T03:42:15;135.07;;;127.45;;
55202;SDS011;41077;52.956;6.796;2023-02-28T03:45:32;123.38;;;116.43;;
55202;SDS011;41077;52.956;6.796;2023-02-28T03:47:53;108.88;;;102.60;;
55202;SDS011;41077;52.956;6.796;2023-02-28T03:52:58;128.35;;;121.20;;
55202;SDS011;41077;52.956;6.796;2023-02-28T03:57:59;74.63;;;69.45;;
55202;SDS011;41077;52.956;6.796;2023-02-28T04:00:30;74.63;;;69.97;;
55202;SDS011;41077;52.956;6.796;2023-02-28T04:03:00;81.65;;;76.57;;
55202;SDS011;41077;52.956;6.796;2023-02-28T04:05:27;76.00;;;71.45;;
55202;SDS011;41077;52.956;6.796;2023-02-28T04:07:54;95.75;;;90.63;;
55202;SDS011;41077;52.956;6.796;2023-02-28T04:10:28;170.80;;;161.38;;
55202;SDS011;41077;52.956;6.796;2023-02-28T04:12:53;140.48;;;133.10;;
55202;SDS011;41077;52.956;6.796;2023-02-28T04:15:19;98.55;;;92.82;;
55202;SDS011;41077;52.956;6.796;2023-02-28T04:17:47;147.07;;;139.05;;
55202;SDS011;41077;52.956;6.796;2023-02-28T04:20:13;171.48;;;162.60;;
55202;SDS011;41077;52.956;6.796;2023-02-28T04:22:39;182.65;;;173.23;;
55202;SDS011;41077;52.956;6.796;2023-02-28T04:25:04;172.85;;;163.80;;
55202;SDS011;41077;52.956;6.796;2023-02-28T04:27:31;116.65;;;109.90;;
55202;SDS011;41077;52.956;6.796;2023-02-28T04:29:56;168.55;;;160.00;;
55202;SDS011;41077;52.956;6.796;2023-02-28T04:32:22;153.60;;;145.35;;
55202;SDS011;41077;52.956;6.796;2023-02-28T04:34:47;167.45;;;158.02;;
55202;SDS011;41077;52.956;6.796;2023-02-28T04:37:13;151.60;;;143.52;;
55202;SDS011;41077;52.956;6.796;2023-02-28T04:39:39;153.30;;;145.07;;
55202;SDS011;41077;52.956;6.796;2023-02-28T04:42:05;132.90;;;125.40;;
55202;SDS011;41077;52.956;6.796;2023-02-28T04:44:31;122.18;;;114.95;;
55202;SDS011;41077;52.956;6.796;2023-02-28T04:46:57;49.90;;;46.33;;
55202;SDS011;41077;52.956;6.796;2023-02-28T04:49:22;25.65;;;23.13;;
55202;SDS011;41077;52.956;6.796;2023-02-28T04:51:48;39.53;;;36.63;;
55202;SDS011;41077;52.956;6.796;2023-02-28T04:54:15;40.67;;;37.47;;
55202;SDS011;41077;52.956;6.796;2023-02-28T04:56:41;36.70;;;33.90;;
55202;SDS011;41077;52.956;6.796;2023-02-28T04:59:07;37.47;;;34.38;;
55202;SDS011;41077;52.956;6.796;2023-02-28T05:01:33;35.55;;;32.78;;
55202;SDS011;41077;52.956;6.796;2023-02-28T05:04:00;44.17;;;41.17;;
55202;SDS011;41077;52.956;6.796;2023-02-28T05:06:28;42.65;;;39.53;;
55202;SDS011;41077;52.956;6.796;2023-02-28T05:08:55;38.55;;;35.60;;
55202;SDS011;41077;52.956;6.796;2023-02-28T05:11:31;42.35;;;39.33;;
55202;SDS011;41077;52.956;6.796;2023-02-28T05:14:04;37.65;;;34.38;;
55202;SDS011;41077;52.956;6.796;2023-02-28T05:16:32;36.75;;;33.42;;
55202;SDS011;41077;52.956;6.796;2023-02-28T05:18:58;35.50;;;32.42;;
55202;SDS011;41077;52.956;6.796;2023-02-28T05:21:31;35.13;;;32.13;;
55202;SDS011;41077;52.956;6.796;2023-02-28T05:24:01;65.28;;;60.83;;
55202;SDS011;41077;52.956;6.796;2023-02-28T05:26:30;44.13;;;40.20;;
55202;SDS011;41077;52.956;6.796;2023-02-28T05:28:58;36.33;;;32.97;;
55202;SDS011;41077;52.956;6.796;2023-02-28T05:31:24;27.40;;;24.85;;
55202;SDS011;41077;52.956;6.796;2023-02-28T05:33:50;34.40;;;31.67;;
55202;SDS011;41077;52.956;6.796;2023-02-28T05:36:16;32.17;;;29.45;;
55202;SDS011;41077;52.956;6.796;2023-02-28T05:38:42;28.08;;;25.30;;
55202;SDS011;41077;52.956;6.796;2023-02-28T05:41:08;33.97;;;30.92;;
55202;SDS011;41077;52.956;6.796;2023-02-28T05:43:35;30.52;;;27.70;;
55202;SDS011;41077;52.956;6.796;2023-02-28T05:46:05;44.38;;;40.83;;
55202;SDS011;41077;52.956;6.796;2023-02-28T05:48:35;40.67;;;37.10;;
55202;SDS011;41077;52.956;6.796;2023-02-28T05:51:02;53.80;;;49.97;;
55202;SDS011;41077;52.956;6.796;2023-02-28T05:53:29;40.67;;;37.58;;
55202;SDS011;41077;52.956;6.796;2023-02-28T05:55:55;43.20;;;39.72;;
55202;SDS011;41077;52.956;6.796;2023-02-28T05:58:20;35.53;;;32.53;;
55202;SDS011;41077;52.956;6.796;2023-02-28T06:00:46;41.00;;;34.90;;
55202;SDS011;41077;52.956;6.796;2023-02-28T06:03:13;46.65;;;42.47;;
55202;SDS011;41077;52.956;6.796;2023-02-28T06:05:38;45.58;;;42.03;;
55202;SDS011;41077;52.956;6.796;2023-02-28T06:08:04;34.15;;;31.35;;
55202;SDS011;41077;52.956;6.796;2023-02-28T06:10:32;32.80;;;29.55;;
55202;SDS011;41077;52.956;6.796;2023-02-28T06:13:02;34.25;;;31.17;;
55202;SDS011;41077;52.956;6.796;2023-02-28T06:15:29;32.45;;;29.70;;
55202;SDS011;41077;52.956;6.796;2023-02-28T06:17:54;30.67;;;28.17;;
55202;SDS011;41077;52.956;6.796;2023-02-28T06:20:24;41.22;;;37.33;;
55202;SDS011;41077;52.956;6.796;2023-02-28T06:22:54;31.33;;;28.85;;
55202;SDS011;41077;52.956;6.796;2023-02-28T06:25:21;36.15;;;32.78;;
55202;SDS011;41077;52.956;6.796;2023-02-28T06:27:47;32.88;;;29.83;;
55202;SDS011;41077;52.956;6.796;2023-02-28T06:30:13;37.17;;;33.85;;
55202;SDS011;41077;52.956;6.796;2023-02-28T06:32:39;32.97;;;27.95;;
55202;SDS011;41077;52.956;6.796;2023-02-28T06:35:05;44.08;;;40.03;;
55202;SDS011;41077;52.956;6.796;2023-02-28T06:37:31;32.05;;;28.67;;
55202;SDS011;41077;52.956;6.796;2023-02-28T06:39:57;37.67;;;34.72;;
55202;SDS011;41077;52.956;6.796;2023-02-28T06:42:23;31.85;;;29.15;;
55202;SDS011;41077;52.956;6.796;2023-02-28T06:44:56;55.22;;;50.75;;
55202;SDS011;41077;52.956;6.796;2023-02-28T06:47:22;43.20;;;39.92;;
55202;SDS011;41077;52.956;6.796;2023-02-28T06:49:48;41.53;;;37.83;;
55202;SDS011;41077;52.956;6.796;2023-02-28T06:52:15;37.20;;;33.97;;
55202;SDS011;41077;52.956;6.796;2023-02-28T06:54:41;31.42;;;28.33;;
55202;SDS011;41077;52.956;6.796;2023-02-28T06:57:07;41.03;;;37.03;;
55202;SDS011;41077;52.956;6.796;2023-02-28T06:59:32;47.72;;;43.88;;
55202;SDS011;41077;52.956;6.796;2023-02-28T07:02:00;49.30;;;45.42;;
55202;SDS011;41077;52.956;6.796;2023-02-28T07:04:27;30.45;;;27.25;;
55202;SDS011;41077;52.956;6.796;2023-02-28T07:06:53;62.53;;;58.03;;
55202;SDS011;41077;52.956;6.796;2023-02-28T07:09:21;40.83;;;37.35;;
55202;SDS011;41077;52.956;6.796;2023-02-28T07:11:47;48.25;;;44.40;;
55202;SDS011;41077;52.956;6.796;2023-02-28T07:14:13;69.43;;;64.75;;
55202;SDS011;41077;52.956;6.796;2023-02-28T07:16:39;41.80;;;38.63;;
55202;SDS011;41077;52.956;6.796;2023-02-28T07:19:05;46.65;;;43.08;;
55202;SDS011;41077;52.956;6.796;2023-02-28T07:21:31;41.70;;;38.25;;
55202;SDS011;41077;52.956;6.796;2023-02-28T07:23:56;37.08;;;34.08;;
55202;SDS011;41077;52.956;6.796;2023-02-28T07:26:22;36.92;;;33.60;;
55202;SDS011;41077;52.956;6.796;2023-02-28T07:28:48;39.15;;;35.88;;
55202;SDS011;41077;52.956;6.796;2023-02-28T07:31:15;48.28;;;43.80;;
55202;SDS011;41077;52.956;6.796;2023-02-28T07:33:42;47.67;;;43.72;;
55202;SDS011;41077;52.956;6.796;2023-02-28T07:36:12;66.10;;;61.28;;
55202;SDS011;41077;52.956;6.796;2023-02-28T07:38:41;66.78;;;62.17;;
55202;SDS011;41077;52.956;6.796;2023-02-28T07:41:08;58.25;;;54.35;;
55202;SDS011;41077;52.956;6.796;2023-02-28T07:43:34;79.57;;;74.32;;
55202;SDS011;41077;52.956;6.796;2023-02-28T07:46:04;65.00;;;60.30;;
55202;SDS011;41077;52.956;6.796;2023-02-28T07:48:34;87.90;;;82.28;;
55202;SDS011;41077;52.956;6.796;2023-02-28T07:51:00;75.75;;;70.93;;
55202;SDS011;41077;52.956;6.796;2023-02-28T07:53:26;73.15;;;68.18;;
55202;SDS011;41077;52.956;6.796;2023-02-28T07:55:56;84.40;;;78.70;;
55202;SDS011;41077;52.956;6.796;2023-02-28T07:58:23;60.58;;;55.92;;
55202;SDS011;41077;52.956;6.796;2023-02-28T08:00:50;73.10;;;68.15;;
55202;SDS011;41077;52.956;6.796;2023-02-28T08:03:17;83.43;;;77.82;;
55202;SDS011;41077;52.956;6.796;2023-02-28T08:05:43;75.85;;;70.38;;
55202;SDS011;41077;52.956;6.796;2023-02-28T08:08:09;78.20;;;73.13;;
55202;SDS011;41077;52.956;6.796;2023-02-28T08:10:35;96.53;;;89.00;;
55202;SDS011;41077;52.956;6.796;2023-02-28T08:13:01;86.60;;;80.95;;
55202;SDS011;41077;52.956;6.796;2023-02-28T08:15:26;77.10;;;72.15;;
55202;SDS011;41077;52.956;6.796;2023-02-28T08:17:52;86.72;;;80.85;;
55202;SDS011;41077;52.956;6.796;2023-02-28T08:20:18;82.10;;;76.82;;
55202;SDS011;41077;52.956;6.796;2023-02-28T08:22:44;90.07;;;83.88;;
55202;SDS011;41077;52.956;6.796;2023-02-28T08:25:10;97.32;;;91.05;;
55202;SDS011;41077;52.956;6.796;2023-02-28T08:27:36;97.88;;;91.57;;
55202;SDS011;41077;52.956;6.796;2023-02-28T08:30:02;98.07;;;91.82;;
55202;SDS011;41077;52.956;6.796;2023-02-28T08:32:28;108.18;;;101.35;;
55202;SDS011;41077;52.956;6.796;2023-02-28T08:34:54;90.82;;;84.75;;
55202;SDS011;41077;52.956;6.796;2023-02-28T08:37:20;83.38;;;77.78;;
55202;SDS011;41077;52.956;6.796;2023-02-28T08:39:45;97.53;;;91.70;;
55202;SDS011;41077;52.956;6.796;2023-02-28T08:42:11;107.55;;;100.05;;
55202;SDS011;41077;52.956;6.796;2023-02-28T08:44:37;114.75;;;107.75;;
55202;SDS011;41077;52.956;6.796;2023-02-28T08:47:02;97.25;;;91.05;;
55202;SDS011;41077;52.956;6.796;2023-02-28T08:49:28;80.25;;;75.18;;
55202;SDS011;41077;52.956;6.796;2023-02-28T08:51:54;84.32;;;78.97;;
55202;SDS011;41077;52.956;6.796;2023-02-28T08:54:22;65.25;;;60.85;;
55202;SDS011;41077;52.956;6.796;2023-02-28T08:56:48;58.17;;;54.28;;
55202;SDS011;41077;52.956;6.796;2023-02-28T08:59:14;58.85;;;54.55;;
55202;SDS011;41077;52.956;6.796;2023-02-28T09:01:39;92.65;;;87.07;;
55202;SDS011;41077;52.956;6.796;2023-02-28T09:04:06;52.70;;;48.60;;
55202;SDS011;41077;52.956;6.796;2023-02-28T09:06:33;60.85;;;56.85;;
55202;SDS011;41077;52.956;6.796;2023-02-28T09:08:59;58.63;;;54.33;;
55202;SDS011;41077;52.956;6.796;2023-02-28T09:11:26;78.72;;;73.90;;
55202;SDS011;41077;52.956;6.796;2023-02-28T09:13:53;64.20;;;59.97;;
55202;SDS011;41077;52.956;6.796;2023-02-28T09:16:20;62.85;;;58.50;;
55202;SDS011;41077;52.956;6.796;2023-02-28T09:18:46;63.35;;;59.35;;
55202;SDS011;41077;52.956;6.796;2023-02-28T09:21:13;63.72;;;59.40;;
55202;SDS011;41077;52.956;6.796;2023-02-28T09:23:41;64.95;;;60.75;;
55202;SDS011;41077;52.956;6.796;2023-02-28T09:26:07;48.97;;;45.38;;
55202;SDS011;41077;52.956;6.796;2023-02-28T09:28:39;54.28;;;50.40;;
55202;SDS011;41077;52.956;6.796;2023-02-28T09:31:04;49.67;;;46.10;;
55202;SDS011;41077;52.956;6.796;2023-02-28T09:33:30;57.72;;;53.72;;
55202;SDS011;41077;52.956;6.796;2023-02-28T09:36:00;46.25;;;43.03;;
55202;SDS011;41077;52.956;6.796;2023-02-28T09:38:27;58.22;;;54.33;;
55202;SDS011;41077;52.956;6.796;2023-02-28T09:40:55;46.88;;;43.03;;
55202;SDS011;41077;52.956;6.796;2023-02-28T09:43:45;37.15;;;34.35;;
55202;SDS011;41077;52.956;6.796;2023-02-28T09:53:56;42.08;;;38.45;;
55202;SDS011;41077;52.956;6.796;2023-02-28T09:56:25;36.10;;;32.88;;
55202;SDS011;41077;52.956;6.796;2023-02-28T09:59:01;35.65;;;33.03;;
55202;SDS011;41077;52.956;6.796;2023-02-28T10:01:47;43.13;;;39.88;;
55202;SDS011;41077;52.956;6.796;2023-02-28T10:07:12;38.28;;;35.47;;
55202;SDS011;41077;52.956;6.796;2023-02-28T10:09:42;39.13;;;36.20;;
55202;SDS011;41077;52.956;6.796;2023-02-28T10:12:10;44.35;;;40.90;;
55202;SDS011;41077;52.956;6.796;2023-02-28T10:14:38;42.13;;;38.97;;
55202;SDS011;41077;52.956;6.796;2023-02-28T10:17:13;89.70;;;84.22;;
55202;SDS011;41077;52.956;6.796;2023-02-28T10:19:56;31.55;;;29.38;;
55202;SDS011;41077;52.956;6.796;2023-02-28T10:22:50;30.58;;;28.48;;
55202;SDS011;41077;52.956;6.796;2023-02-28T10:25:25;26.90;;;25.00;;
55202;SDS011;41077;52.956;6.796;2023-02-28T10:28:07;32.13;;;29.73;;
55202;SDS011;41077;52.956;6.796;2023-02-28T10:30:36;33.70;;;31.35;;
55202;SDS011;41077;52.956;6.796;2023-02-28T10:33:05;35.55;;;33.38;;
55202;SDS011;41077;52.956;6.796;2023-02-28T10:35:39;69.40;;;65.38;;
55202;SDS011;41077;52.956;6.796;2023-02-28T10:38:08;54.50;;;51.42;;
55202;SDS011;41077;52.956;6.796;2023-02-28T10:40:44;45.47;;;42.67;;
55202;SDS011;41077;52.956;6.796;2023-02-28T10:45:39;72.65;;;68.18;;
55202;SDS011;41077;52.956;6.796;2023-02-28T10:58:29;71.38;;;67.63;;
55202;SDS011;41077;52.956;6.796;2023-02-28T11:00:57;47.17;;;44.65;;
55202;SDS011;41077;52.956;6.796;2023-02-28T11:05:49;23.42;;;21.95;;
55202;SDS011;41077;52.956;6.796;2023-02-28T11:08:16;28.77;;;26.85;;
55202;SDS011;41077;52.956;6.796;2023-02-28T11:10:46;21.15;;;20.02;;
55202;SDS011;41077;52.956;6.796;2023-02-28T11:13:17;18.58;;;17.48;;
55202;SDS011;41077;52.956;6.796;2023-02-28T11:15:49;22.35;;;20.95;;
55202;SDS011;41077;52.956;6.796;2023-02-28T11:21:01;22.38;;;20.85;;
55202;SDS011;41077;52.956;6.796;2023-02-28T11:23:28;22.25;;;20.77;;
55202;SDS011;41077;52.956;6.796;2023-02-28T11:25:59;19.55;;;18.30;;
55202;SDS011;41077;52.956;6.796;2023-02-28T11:28:31;20.67;;;19.17;;
55202;SDS011;41077;52.956;6.796;2023-02-28T11:31:05;29.73;;;27.70;;
55202;SDS011;41077;52.956;6.796;2023-02-28T11:36:26;30.08;;;28.15;;
55202;SDS011;41077;52.956;6.796;2023-02-28T11:38:54;135.65;;;128.60;;
55202;SDS011;41077;52.956;6.796;2023-02-28T11:47:14;84.78;;;79.78;;
55202;SDS011;41077;52.956;6.796;2023-02-28T11:52:22;76.57;;;72.43;;
55202;SDS011;41077;52.956;6.796;2023-02-28T11:55:21;30.05;;;28.00;;
55202;SDS011;41077;52.956;6.796;2023-02-28T12:06:23;34.63;;;31.48;;
55202;SDS011;41077;52.956;6.796;2023-02-28T12:09:28;21.52;;;19.88;;
55202;SDS011;41077;52.956;6.796;2023-02-28T12:15:24;25.48;;;23.20;;
55202;SDS011;41077;52.956;6.796;2023-02-28T12:20:43;24.17;;;22.30;;
55202;SDS011;41077;52.956;6.796;2023-02-28T12:28:50;31.95;;;29.60;;
55202;SDS011;41077;52.956;6.796;2023-02-28T12:31:31;30.35;;;28.25;;
55202;SDS011;41077;52.956;6.796;2023-02-28T12:34:03;31.48;;;29.55;;
55202;SDS011;41077;52.956;6.796;2023-02-28T12:36:40;33.28;;;31.33;;
55202;SDS011;41077;52.956;6.796;2023-02-28T12:39:17;28.98;;;27.10;;
55202;SDS011;41077;52.956;6.796;2023-02-28T12:42:05;33.13;;;30.98;;
55202;SDS011;41077;52.956;6.796;2023-02-28T12:47:40;31.33;;;29.30;;
55202;SDS011;41077;52.956;6.796;2023-02-28T12:50:09;21.60;;;20.10;;
55202;SDS011;41077;52.956;6.796;2023-02-28T12:55:48;24.50;;;22.92;;
55202;SDS011;41077;52.956;6.796;2023-02-28T13:09:58;39.13;;;36.67;;
55202;SDS011;41077;52.956;6.796;2023-02-28T13:12:26;33.17;;;30.85;;
55202;SDS011;41077;52.956;6.796;2023-02-28T13:15:15;34.13;;;32.03;;
55202;SDS011;41077;52.956;6.796;2023-02-28T13:17:55;34.95;;;32.83;;
55202;SDS011;41077;52.956;6.796;2023-02-28T13:20:25;59.10;;;55.78;;
55202;SDS011;41077;52.956;6.796;2023-02-28T13:22:55;51.05;;;48.00;;
55202;SDS011;41077;52.956;6.796;2023-02-28T13:27:48;67.32;;;63.63;;
55202;SDS011;41077;52.956;6.796;2023-02-28T13:35:45;53.35;;;50.10;;
55202;SDS011;41077;52.956;6.796;2023-02-28T13:38:33;99.90;;;94.20;;
55202;SDS011;41077;52.956;6.796;2023-02-28T13:49:18;54.55;;;51.35;;
55202;SDS011;41077;52.956;6.796;2023-02-28T13:51:45;76.43;;;71.90;;
55202;SDS011;41077;52.956;6.796;2023-02-28T14:02:30;75.57;;;71.57;;
55202;SDS011;41077;52.956;6.796;2023-02-28T14:05:15;117.32;;;110.82;;
55202;SDS011;41077;52.956;6.796;2023-02-28T14:10:26;101.60;;;96.25;;
55202;SDS011;41077;52.956;6.796;2023-02-28T14:13:02;143.77;;;136.27;;
55202;SDS011;41077;52.956;6.796;2023-02-28T14:16:01;156.55;;;148.60;;
55202;SDS011;41077;52.956;6.796;2023-02-28T14:18:30;122.25;;;115.72;;
55202;SDS011;41077;52.956;6.796;2023-02-28T14:21:09;136.18;;;129.30;;
55202;SDS011;41077;52.956;6.796;2023-02-28T14:34:53;145.00;;;137.85;;
55202;SDS011;41077;52.956;6.796;2023-02-28T14:37:39;148.68;;;141.20;;
55202;SDS011;41077;52.956;6.796;2023-02-28T14:40:17;125.53;;;119.03;;
55202;SDS011;41077;52.956;6.796;2023-02-28T14:42:59;147.65;;;140.15;;
55202;SDS011;41077;52.956;6.796;2023-02-28T14:45:29;137.05;;;128.75;;
55202;SDS011;41077;52.956;6.796;2023-02-28T14:47:56;94.63;;;89.88;;
55202;SDS011;41077;52.956;6.796;2023-02-28T14:50:24;137.63;;;127.93;;
55202;SDS011;41077;52.956;6.796;2023-02-28T14:52:54;112.35;;;106.20;;
55202;SDS011;41077;52.956;6.796;2023-02-28T14:55:28;124.50;;;118.25;;
55202;SDS011;41077;52.956;6.796;2023-02-28T14:57:56;101.72;;;96.63;;
55202;SDS011;41077;52.956;6.796;2023-02-28T15:00:35;109.45;;;103.75;;
55202;SDS011;41077;52.956;6.796;2023-02-28T15:03:17;109.25;;;103.50;;
55202;SDS011;41077;52.956;6.796;2023-02-28T15:05:58;102.63;;;97.30;;
55202;SDS011;41077;52.956;6.796;2023-02-28T15:08:29;225.85;;;214.32;;
55202;SDS011;41077;52.956;6.796;2023-02-28T15:11:18;136.35;;;127.93;;
55202;SDS011;41077;52.956;6.796;2023-02-28T15:13:50;105.85;;;100.63;;
55202;SDS011;41077;52.956;6.796;2023-02-28T15:16:35;92.85;;;88.13;;
55202;SDS011;41077;52.956;6.796;2023-02-28T15:19:14;92.80;;;87.90;;
55202;SDS011;41077;52.956;6.796;2023-02-28T15:21:54;75.93;;;72.10;;
55202;SDS011;41077;52.956;6.796;2023-02-28T15:27:29;82.35;;;77.82;;
55202;SDS011;41077;52.956;6.796;2023-02-28T15:29:57;66.57;;;62.92;;
55202;SDS011;41077;52.956;6.796;2023-02-28T15:32:34;79.75;;;75.38;;
55202;SDS011;41077;52.956;6.796;2023-02-28T15:37:54;84.35;;;79.97;;
55202;SDS011;41077;52.956;6.796;2023-02-28T15:40:42;86.72;;;82.20;;
55202;SDS011;41077;52.956;6.796;2023-02-28T15:43:23;102.38;;;97.10;;
55202;SDS011;41077;52.956;6.796;2023-02-28T15:48:35;152.18;;;144.57;;
55202;SDS011;41077;52.956;6.796;2023-02-28T15:51:14;129.52;;;122.97;;
55202;SDS011;41077;52.956;6.796;2023-02-28T15:54:04;127.10;;;120.65;;
55202;SDS011;41077;52.956;6.796;2023-02-28T15:56:47;179.40;;;170.02;;
55202;SDS011;41077;52.956;6.796;2023-02-28T15:59:21;117.55;;;111.43;;
55202;SDS011;41077;52.956;6.796;2023-02-28T16:02:13;135.05;;;128.02;;
55202;SDS011;41077;52.956;6.796;2023-02-28T16:04:56;140.60;;;133.35;;
55202;SDS011;41077;52.956;6.796;2023-02-28T16:07:28;147.38;;;140.02;;
55202;SDS011;41077;52.956;6.796;2023-02-28T16:09:54;139.13;;;132.00;;
55202;SDS011;41077;52.956;6.796;2023-02-28T16:12:20;168.80;;;160.27;;
55202;SDS011;41077;52.956;6.796;2023-02-28T16:14:52;151.93;;;144.48;;
55202;SDS011;41077;52.956;6.796;2023-02-28T16:17:25;176.95;;;168.20;;
55202;SDS011;41077;52.956;6.796;2023-02-28T16:19:54;174.98;;;166.35;;
55202;SDS011;41077;52.956;6.796;2023-02-28T16:22:20;195.38;;;185.45;;
55202;SDS011;41077;52.956;6.796;2023-02-28T16:24:46;170.65;;;162.10;;
55202;SDS011;41077;52.956;6.796;2023-02-28T16:27:17;108.53;;;103.00;;
55202;SDS011;41077;52.956;6.796;2023-02-28T16:29:46;202.27;;;192.27;;
55202;SDS011;41077;52.956;6.796;2023-02-28T16:32:14;175.18;;;166.45;;
55202;SDS011;41077;52.956;6.796;2023-02-28T16:34:41;213.77;;;203.18;;
55202;SDS011;41077;52.956;6.796;2023-02-28T16:37:17;172.10;;;163.68;;
55202;SDS011;41077;52.956;6.796;2023-02-28T16:39:43;375.02;;;356.55;;
55202;SDS011;41077;52.956;6.796;2023-02-28T16:42:15;392.88;;;373.38;;
55202;SDS011;41077;52.956;6.796;2023-02-28T16:44:46;255.63;;;243.15;;
55202;SDS011;41077;52.956;6.796;2023-02-28T16:47:12;218.25;;;207.88;;
55202;SDS011;41077;52.956;6.796;2023-02-28T16:49:38;174.00;;;165.32;;
55202;SDS011;41077;52.956;6.796;2023-02-28T16:52:07;141.95;;;134.93;;
55202;SDS011;41077;52.956;6.796;2023-02-28T16:54:33;240.38;;;229.02;;
55202;SDS011;41077;52.956;6.796;2023-02-28T16:56:59;144.93;;;137.65;;
55202;SDS011;41077;52.956;6.796;2023-02-28T16:59:26;166.70;;;158.00;;
55202;SDS011;41077;52.956;6.796;2023-02-28T17:01:52;188.98;;;179.98;;
55202;SDS011;41077;52.956;6.796;2023-02-28T17:04:19;171.15;;;162.50;;
55202;SDS011;41077;52.956;6.796;2023-02-28T17:06:44;198.15;;;188.52;;
55202;SDS011;41077;52.956;6.796;2023-02-28T17:09:17;223.43;;;213.05;;